Time;durP1;ratioP1;P1;durP2;ratioP2;P2;SDS_P1;SDS_P2;PMS_P1;PMS_P2;Temp;Humidity;BMP_temperature;BMP_pressure;BME280_temperature;BME280_humidity;BME280_pressure;Samples;Min_cycle;Max_cycle;Signal;HPM_P1;HPM_P2
2021/01/24 00:01:47;;;;;;;13.82;9.07;;;;;;;6.89;70.12;93417.22;4129021;28;20050;-71
2021/01/24 00:03:48;;;;;;;13.05;8.60;;;;;;;6.94;69.40;93401.91;4130454;28;20092;-70
2021/01/24 00:05:49;;;;;;;10.52;7.85;;;;;;;6.95;68.75;93395.72;4125974;28;20050;-70
2021/01/24 00:07:51;;;;;;;10.32;7.15;;;;;;;6.98;68.70;93382.38;4125602;28;20065;-70
2021/01/24 00:09:52;;;;;;;5.50;2.25;;;;;;;7.64;62.67;93379.41;4130357;28;20047;-71
2021/01/24 00:11:53;;;;;;;8.80;5.00;;;;;;;7.71;64.78;93382.94;4129220;28;20058;-70
2021/01/24 00:13:54;;;;;;;6.93;4.68;;;;;;;7.76;65.00;93385.81;4129932;28;20113;-71
2021/01/24 00:15:55;;;;;;;6.88;4.72;;;;;;;7.75;64.86;93389.44;4129344;28;20050;-69
2021/01/24 00:17:57;;;;;;;7.18;4.13;;;;;;;7.69;65.30;93391.91;4129196;28;20054;-71
2021/01/24 00:20:01;;;;;;;8.00;5.85;;;;;;;7.74;65.99;93402.63;4131514;28;20046;-71
2021/01/24 00:22:03;;;;;;;5.45;3.60;;;;;;;7.74;65.34;93402.63;4130276;28;20423;-70
2021/01/24 00:24:05;;;;;;;5.47;3.03;;;;;;;7.72;64.66;93418.47;4130658;28;20042;-72
2021/01/24 00:26:07;;;;;;;5.00;3.58;;;;;;;7.75;64.96;93430.34;4129863;28;20054;-72
2021/01/24 00:28:08;;;;;;;4.80;3.05;;;;;;;7.74;64.40;93418.25;4114308;28;20511;-72
2021/01/24 00:30:10;;;;;;;6.05;4.38;;;;;;;7.65;65.69;93417.50;4129220;28;20054;-71
2021/01/24 00:32:12;;;;;;;8.07;5.25;;;;;;;7.64;65.43;93412.50;4125537;28;20051;-71
2021/01/24 00:34:13;;;;;;;7.80;4.85;;;;;;;7.61;65.69;93408.41;4131164;28;20054;-70
2021/01/24 00:36:16;;;;;;;6.25;4.28;;;;;;;7.68;65.27;93413.75;4130780;28;20482;-70
2021/01/24 00:38:17;;;;;;;12.13;7.38;;;;;;;7.63;66.50;93426.50;4127354;28;20058;-70
2021/01/24 00:40:18;;;;;;;8.80;5.80;;;;;;;7.54;66.35;93418.72;4126900;28;20046;-70
2021/01/24 00:42:19;;;;;;;8.27;5.63;;;;;;;7.59;66.17;93421.63;4128919;28;20118;-70
2021/01/24 00:44:20;;;;;;;6.88;4.20;;;;;;;7.67;66.23;93441.59;4131242;28;20537;-71
2021/01/24 00:46:22;;;;;;;7.25;4.93;;;;;;;7.66;66.30;93416.53;4128445;28;20061;-71
2021/01/24 00:48:24;;;;;;;6.68;4.28;;;;;;;7.73;65.54;93414.06;4117806;28;20567;-71
2021/01/24 00:50:25;;;;;;;3.30;1.80;;;;;;;7.76;64.04;93426.72;4117239;28;20050;-70
2021/01/24 00:52:26;;;;;;;3.10;1.98;;;;;;;7.85;63.72;93428.31;4131264;28;20062;-69
2021/01/24 00:54:27;;;;;;;3.22;1.70;;;;;;;7.89;63.22;93413.91;4128460;28;20054;-71
2021/01/24 00:56:29;;;;;;;1.75;1.15;;;;;;;7.94;61.76;93429.06;4128264;28;20093;-71
2021/01/24 00:58:30;;;;;;;2.05;1.17;;;;;;;8.05;62.29;93435.69;4116318;28;20479;-71
2021/01/24 01:00:31;;;;;;;2.03;0.90;;;;;;;8.14;59.36;93422.38;4127625;28;20124;-71
2021/01/24 01:02:32;;;;;;;2.10;1.17;;;;;;;8.19;61.10;93421.84;4128984;28;20623;-70
2021/01/24 01:04:34;;;;;;;1.63;1.05;;;;;;;8.25;60.90;93428.16;4119649;28;20133;-71
2021/01/24 01:06:35;;;;;;;1.20;0.80;;;;;;;8.30;59.47;93424.06;4127363;28;20124;-71
2021/01/24 01:08:36;;;;;;;2.40;1.38;;;;;;;8.40;60.01;93397.69;4112920;28;20117;-71
2021/01/24 01:10:37;;;;;;;1.63;1.00;;;;;;;8.43;60.56;93413.03;4128931;28;20141;-71
2021/01/24 01:12:38;;;;;;;1.55;1.00;;;;;;;8.40;60.16;93402.91;4129184;28;20230;-71
2021/01/24 01:14:40;;;;;;;1.50;0.90;;;;;;;8.37;61.44;93418.94;4127615;28;20050;-71
2021/01/24 01:16:41;;;;;;;2.00;1.10;;;;;;;8.34;63.04;93425.31;4127832;28;20050;-72
2021/01/24 01:18:42;;;;;;;1.67;1.00;;;;;;;8.30;62.77;93420.63;4132711;28;20050;-81
2021/01/24 01:20:43;;;;;;;1.95;0.90;;;;;;;8.24;63.44;93401.28;4120003;28;20564;-83
2021/01/24 01:22:45;;;;;;;1.52;0.82;;;;;;;8.16;64.20;93411.78;4133872;28;20055;-82
2021/01/24 01:24:46;;;;;;;1.90;1.02;;;;;;;8.17;64.56;93401.19;4125804;28;20394;-82
2021/01/24 01:26:47;;;;;;;1.55;1.10;;;;;;;8.13;64.80;93402.50;4132361;28;20140;-82
2021/01/24 01:28:48;;;;;;;2.40;1.00;;;;;;;8.13;64.75;93397.28;4132458;28;20057;-83
2021/01/24 01:30:50;;;;;;;2.10;0.90;;;;;;;8.07;64.68;93411.03;4129037;28;20389;-82
2021/01/24 01:32:51;;;;;;;3.58;1.20;;;;;;;8.03;63.14;93381.06;4134302;28;20079;-81
2021/01/24 01:34:52;;;;;;;2.33;1.00;;;;;;;8.06;63.08;93398.97;4140741;28;20058;-82
2021/01/24 01:36:53;;;;;;;2.05;1.15;;;;;;;8.15;61.36;93384.88;4137316;28;20487;-82
2021/01/24 01:38:54;;;;;;;2.50;0.95;;;;;;;8.18;61.18;93389.75;4139613;28;20054;-82
2021/01/24 01:40:56;;;;;;;2.20;1.20;;;;;;;8.18;61.06;93376.69;4141605;28;20116;-83
2021/01/24 01:42:58;;;;;;;2.03;1.13;;;;;;;8.21;61.54;93373.72;4138904;28;20058;-81
2021/01/24 01:44:59;;;;;;;3.63;0.95;;;;;;;8.30;60.41;93408.41;4138121;28;20060;-82
2021/01/24 01:47:00;;;;;;;3.05;1.10;;;;;;;8.34;60.03;93411.44;4132251;28;20054;-81
2021/01/24 01:49:01;;;;;;;1.55;0.90;;;;;;;8.32;59.11;93410.81;4134751;28;20058;-81
2021/01/24 01:51:03;;;;;;;1.10;0.80;;;;;;;8.31;59.16;93404.00;4135651;28;20058;-82
2021/01/24 01:53:04;;;;;;;1.50;0.82;;;;;;;8.25;59.97;93413.31;4137283;28;20561;-81
2021/01/24 01:55:06;;;;;;;2.05;1.00;;;;;;;8.25;58.90;93415.13;4133289;28;20064;-70
2021/01/24 01:57:08;;;;;;;1.38;0.80;;;;;;;8.24;59.17;93429.97;4128842;28;20112;-72
2021/01/24 01:59:09;;;;;;;1.10;0.80;;;;;;;8.26;57.93;93406.28;4132352;28;20046;-70
2021/01/24 02:01:19;;;;;;;1.67;0.80;;;;;;;8.29;56.46;93421.63;4131932;28;20061;-72
2021/01/24 02:03:36;;;;;;;1.27;0.90;;;;;;;8.24;59.25;93426.53;4124202;28;20420;-69
2021/01/24 02:05:52;;;;;;;1.65;0.90;;;;;;;8.20;60.96;93418.28;4129814;28;20085;-70
2021/01/24 02:08:12;;;;;;;1.88;0.80;;;;;;;8.21;60.66;93407.63;4125901;28;20050;-71
2021/01/24 02:10:20;;;;;;;2.92;0.80;;;;;;;8.12;62.98;93416.53;4120579;28;20562;-71
2021/01/24 02:12:21;;;;;;;2.25;1.20;;;;;;;8.16;61.87;93406.56;4132009;28;20133;-80
2021/01/24 02:14:29;;;;;;;2.35;1.30;;;;;;;8.10;63.51;93415.88;4130864;28;20072;-82
2021/01/24 02:16:30;;;;;;;2.55;1.20;;;;;;;7.87;65.21;93407.25;4119331;28;20113;-70
2021/01/24 02:18:33;;;;;;;2.60;1.40;;;;;;;7.94;65.74;93411.63;4126112;28;20058;-69
2021/01/24 02:20:55;;;;;;;3.65;1.30;;;;;;;7.93;66.67;93411.78;4111851;28;20047;-70
2021/01/24 02:22:57;;;;;;;3.60;1.20;;;;;;;7.91;66.19;93403.31;4122924;28;20056;-69
2021/01/24 02:25:12;;;;;;;2.13;1.23;;;;;;;7.84;66.73;93407.63;4127871;28;20046;-71
2021/01/24 02:27:27;;;;;;;2.63;1.30;;;;;;;7.79;66.65;93406.34;4128608;28;20057;-70
2021/01/24 02:29:41;;;;;;;1.80;1.10;;;;;;;7.85;66.68;93406.63;4110985;28;20042;-70
2021/01/24 02:31:46;;;;;;;2.70;1.35;;;;;;;7.84;66.27;93403.22;4128043;28;20084;-70
2021/01/24 02:33:49;;;;;;;2.67;1.30;;;;;;;7.82;66.43;93407.78;4133835;28;20049;-71
2021/01/24 02:35:53;;;;;;;1.80;1.23;;;;;;;7.71;67.35;93411.59;4144875;28;20552;-70
2021/01/24 02:37:56;;;;;;;3.58;1.40;;;;;;;7.71;67.14;93392.56;4128430;28;20062;-69
2021/01/24 02:39:58;;;;;;;3.05;1.45;;;;;;;7.66;67.81;93389.63;4129205;28;20129;-71
2021/01/24 02:42:00;;;;;;;2.55;1.50;;;;;;;7.47;68.05;93385.72;4128191;28;20108;-70
2021/01/24 02:44:02;;;;;;;4.50;1.38;;;;;;;7.45;68.13;93387.69;4128005;28;20062;-70
2021/01/24 02:46:04;;;;;;;3.72;1.45;;;;;;;7.51;67.93;93408.66;4111597;28;20051;-70
2021/01/24 02:48:06;;;;;;;2.70;1.67;;;;;;;7.56;68.17;93410.72;4130138;28;20510;-71
2021/01/24 02:50:08;;;;;;;3.15;1.40;;;;;;;7.62;67.67;93410.03;4127253;28;20046;-71
2021/01/24 02:52:09;;;;;;;4.03;1.65;;;;;;;7.68;67.40;93414.56;4139481;28;20050;-69
2021/01/24 02:54:11;;;;;;;4.97;1.40;;;;;;;7.64;67.04;93402.06;4133263;28;20728;-70
2021/01/24 02:56:12;;;;;;;3.33;1.70;;;;;;;7.59;66.74;93389.53;4122424;28;20050;-70
2021/01/24 02:58:14;;;;;;;3.05;1.50;;;;;;;7.61;66.88;93390.16;4120453;28;20050;-70
2021/01/24 03:00:15;;;;;;;2.08;1.33;;;;;;;7.67;64.29;93391.28;4114804;28;20528;-70
2021/01/24 03:02:17;;;;;;;1.98;1.20;;;;;;;7.70;62.27;93380.50;4113359;28;20051;-70
2021/01/24 03:04:18;;;;;;;2.65;1.30;;;;;;;7.73;61.50;93380.97;4128392;28;20100;-70
2021/01/24 03:06:20;;;;;;;2.67;1.40;;;;;;;7.73;61.44;93364.53;4128398;28;20061;-69
2021/01/24 03:08:21;;;;;;;3.28;1.20;;;;;;;7.71;60.82;93372.50;4124982;28;20054;-71
2021/01/24 03:10:23;;;;;;;3.22;0.95;;;;;;;7.75;57.73;93378.19;4115578;28;20101;-70
2021/01/24 03:12:27;;;;;;;2.58;1.10;;;;;;;7.82;59.24;93373.09;4129788;28;20046;-70
2021/01/24 03:14:29;;;;;;;1.80;0.90;;;;;;;7.85;59.09;93364.91;4127110;28;20050;-69
2021/01/24 03:16:32;;;;;;;3.72;1.20;;;;;;;7.88;58.12;93369.78;4125907;28;20177;-68
2021/01/24 03:18:36;;;;;;;2.30;1.20;;;;;;;7.80;56.81;93368.84;4125887;28;20057;-71
2021/01/24 03:20:40;;;;;;;0.90;0.70;;;;;;;7.79;55.87;93371.66;4129257;28;20120;-70
2021/01/24 03:22:43;;;;;;;1.42;0.80;;;;;;;7.76;55.64;93364.97;4140282;28;20100;-68
2021/01/24 03:24:45;;;;;;;1.88;0.80;;;;;;;7.74;54.90;93372.19;4123774;28;20054;-81
2021/01/24 03:26:47;;;;;;;1.45;0.85;;;;;;;7.80;55.53;93376.66;4138051;28;20061;-81
2021/01/24 03:28:48;;;;;;;1.92;0.85;;;;;;;7.82;54.89;93373.91;4138359;28;20103;-82
2021/01/24 03:30:49;;;;;;;2.05;0.80;;;;;;;7.92;55.46;93373.66;4120785;28;20514;-83
2021/01/24 03:32:51;;;;;;;1.80;0.85;;;;;;;7.88;55.20;93378.41;4125246;28;20050;-83
2021/01/24 03:34:53;;;;;;;1.77;0.77;;;;;;;7.90;53.65;93386.06;4130258;28;20398;-84
2021/01/24 03:36:56;;;;;;;2.20;1.00;;;;;;;7.92;54.17;93395.34;4128596;28;20055;-82
2021/01/24 03:38:58;;;;;;;1.40;0.80;;;;;;;7.90;53.82;93401.72;4112096;28;20054;-81
2021/01/24 03:40:59;;;;;;;1.95;0.80;;;;;;;7.88;52.74;93395.88;4129669;28;20407;-81
2021/01/24 03:43:00;;;;;;;1.52;0.90;;;;;;;7.83;53.60;93388.56;4130256;28;20097;-82
2021/01/24 03:45:02;;;;;;;1.83;0.73;;;;;;;7.82;53.78;93393.94;4130061;28;20116;-82
2021/01/24 03:47:04;;;;;;;1.23;0.60;;;;;;;7.83;53.40;93374.69;4130096;28;20129;-83
2021/01/24 03:49:06;;;;;;;3.05;0.73;;;;;;;7.81;53.15;93387.94;4131133;28;20047;-81
2021/01/24 03:51:17;;;;;;;2.47;0.95;;;;;;;7.82;53.52;93393.94;4116316;28;20054;-84
2021/01/24 03:53:18;;;;;;;1.30;0.70;;;;;;;7.75;53.50;93405.06;4118615;28;20057;-82
2021/01/24 03:55:19;;;;;;;2.45;0.70;;;;;;;7.68;53.58;93388.50;4125187;28;20058;-83
2021/01/24 03:57:20;;;;;;;1.67;0.70;;;;;;;7.70;53.16;93390.91;4134627;28;20050;-80
2021/01/24 03:59:21;;;;;;;1.50;0.85;;;;;;;7.68;53.78;93391.13;4133228;28;20039;-83
2021/01/24 04:01:23;;;;;;;1.55;0.60;;;;;;;7.73;53.55;93382.78;4134586;28;20062;-82
2021/01/24 04:03:24;;;;;;;2.35;0.90;;;;;;;7.73;53.63;93388.78;4134390;28;20042;-84
2021/01/24 04:05:25;;;;;;;2.45;1.00;;;;;;;7.72;53.77;93387.19;4134613;28;20451;-81
2021/01/24 04:07:26;;;;;;;2.30;0.73;;;;;;;7.67;53.93;93386.06;4141948;28;20060;-82
2021/01/24 04:09:28;;;;;;;1.15;0.60;;;;;;;7.68;54.29;93393.72;4134760;28;20050;-82
2021/01/24 04:11:30;;;;;;;2.30;0.65;;;;;;;7.64;54.43;93397.66;4124514;28;20046;-70
2021/01/24 04:13:31;;;;;;;1.48;0.70;;;;;;;7.61;53.78;93392.78;4126291;28;20512;-70
2021/01/24 04:15:32;;;;;;;1.42;0.77;;;;;;;7.64;54.03;93395.06;4124689;28;21019;-69
2021/01/24 04:17:33;;;;;;;5.13;1.05;;;;;;;7.64;54.34;93400.25;4130054;28;20426;-70
2021/01/24 04:19:35;;;;;;;1.42;0.80;;;;;;;7.58;54.43;93399.16;4126617;28;20050;-71
2021/01/24 04:21:36;;;;;;;1.85;0.90;;;;;;;7.56;53.99;93395.91;4114439;28;20058;-70
2021/01/24 04:23:37;;;;;;;1.35;0.80;;;;;;;7.56;53.92;93410.72;4127856;28;20101;-71
2021/01/24 04:25:39;;;;;;;2.60;0.82;;;;;;;7.57;54.43;93402.75;4117276;28;20054;-71
2021/01/24 04:27:40;;;;;;;1.27;0.70;;;;;;;7.54;54.94;93412.69;4130416;28;20494;-70
2021/01/24 04:29:42;;;;;;;2.17;0.98;;;;;;;7.54;54.63;93412.69;4139762;28;20396;-70
2021/01/24 04:31:43;;;;;;;3.33;1.40;;;;;;;7.52;54.61;93405.03;4134112;28;20085;-70
2021/01/24 04:33:45;;;;;;;2.65;0.90;;;;;;;7.49;54.96;93415.03;4116237;28;20059;-69
2021/01/24 04:35:46;;;;;;;2.67;0.95;;;;;;;7.46;55.11;93416.16;4142688;28;20054;-71
2021/01/24 04:37:48;;;;;;;1.73;0.75;;;;;;;7.47;54.77;93415.19;4123781;28;20054;-69
2021/01/24 04:39:49;;;;;;;3.70;0.80;;;;;;;7.48;54.94;93422.00;4121515;28;20113;-69
2021/01/24 04:41:50;;;;;;;2.35;0.80;;;;;;;7.47;54.71;93422.19;4128952;28;20082;-71
2021/01/24 04:43:52;;;;;;;1.75;1.00;;;;;;;7.44;54.62;93425.94;4117998;28;20189;-71
2021/01/24 04:45:56;;;;;;;1.63;1.02;;;;;;;7.44;55.09;93435.53;4127278;28;20346;-70
2021/01/24 04:47:57;;;;;;;2.88;1.23;;;;;;;7.36;55.12;93432.00;4142494;28;20050;-72
2021/01/24 04:49:59;;;;;;;1.73;1.02;;;;;;;7.31;55.54;93434.31;4136034;28;20054;-70
2021/01/24 04:52:01;;;;;;;3.65;1.23;;;;;;;7.36;55.58;93432.00;4145117;28;20100;-69
2021/01/24 04:54:02;;;;;;;2.42;1.00;;;;;;;7.34;55.85;93439.19;4120830;28;20117;-80
2021/01/24 04:56:04;;;;;;;1.90;1.30;;;;;;;7.37;56.27;93438.84;4133305;28;20523;-82
2021/01/24 04:58:54;;;;;;;2.58;1.48;;;;;;;7.30;56.08;93427.47;4141075;28;20108;-83
2021/01/24 05:00:56;;;;;;;4.20;1.50;;;;;;;7.17;56.32;93438.44;4129832;28;20081;-83
2021/01/24 05:02:57;;;;;;;4.20;1.77;;;;;;;7.11;56.28;93446.13;4137074;28;20059;-81
2021/01/24 05:04:59;;;;;;;3.67;1.52;;;;;;;7.13;56.36;93444.16;4133796;28;20046;-69
2021/01/24 05:07:00;;;;;;;4.28;1.92;;;;;;;6.85;56.95;93452.38;4113550;28;20066;-70
2021/01/24 05:09:02;;;;;;;4.43;2.25;;;;;;;6.91;57.27;93453.50;4131062;28;20069;-70
2021/01/24 05:11:04;;;;;;;3.05;1.23;;;;;;;6.97;57.23;93453.66;4127297;28;20566;-70
2021/01/24 05:13:05;;;;;;;4.30;1.48;;;;;;;6.93;57.21;93457.56;4128300;28;20050;-70
2021/01/24 05:15:07;;;;;;;3.63;1.63;;;;;;;6.88;57.94;93459.03;4129482;28;20491;-69
2021/01/24 05:17:08;;;;;;;4.05;1.80;;;;;;;6.85;57.68;93457.59;4129175;28;20046;-84
2021/01/24 05:19:10;;;;;;;6.43;2.00;;;;;;;6.92;57.96;93458.53;4133140;28;20054;-81
2021/01/24 05:21:11;;;;;;;4.82;2.40;;;;;;;6.83;58.59;93450.94;4134032;28;20102;-83
2021/01/24 05:23:13;;;;;;;3.63;1.80;;;;;;;6.77;59.01;93457.59;4134117;28;20432;-84
2021/01/24 05:25:19;;;;;;;4.82;2.00;;;;;;;6.63;59.25;93458.31;4133717;28;20101;-81
2021/01/24 05:27:25;;;;;;;5.20;2.28;;;;;;;6.61;59.92;93455.06;4118281;28;20071;-83
2021/01/24 05:29:27;;;;;;;3.75;1.77;;;;;;;6.57;59.54;93457.97;4123611;28;20042;-84
2021/01/24 05:31:28;;;;;;;4.47;2.10;;;;;;;6.28;60.51;93466.31;4132071;28;20057;-82
2021/01/24 05:33:29;;;;;;;6.13;2.08;;;;;;;6.31;60.97;93473.75;4132239;28;20054;-83
2021/01/24 05:35:30;;;;;;;5.30;2.40;;;;;;;6.28;60.58;93455.06;4131886;28;20050;-82
2021/01/24 05:37:36;;;;;;;5.10;2.15;;;;;;;6.17;60.89;93484.00;4132397;28;20046;-82
2021/01/24 05:39:43;;;;;;;5.22;2.42;;;;;;;6.10;61.48;93471.63;4130729;28;20081;-84
2021/01/24 05:41:51;;;;;;;5.43;2.45;;;;;;;6.20;60.91;93462.91;4113058;28;20063;-70
2021/01/24 05:43:53;;;;;;;4.63;2.70;;;;;;;6.25;61.01;93456.22;4130653;28;20501;-69
2021/01/24 05:45:54;;;;;;;4.70;2.42;;;;;;;6.35;61.09;93469.88;4128189;28;20050;-70
2021/01/24 05:47:59;;;;;;;4.97;2.67;;;;;;;6.21;61.04;93472.31;4130477;28;20060;-70
2021/01/24 05:50:00;;;;;;;5.35;2.03;;;;;;;6.09;60.70;93464.84;4126850;28;20052;-70
2021/01/24 05:52:08;;;;;;;3.67;2.15;;;;;;;6.10;61.25;93469.03;4116707;28;20058;-70
2021/01/24 05:54:09;;;;;;;5.88;2.60;;;;;;;6.20;60.96;93466.28;4130672;28;20046;-81
2021/01/24 05:56:15;;;;;;;4.32;2.50;;;;;;;6.19;60.73;93466.44;4132373;28;20145;-83
2021/01/24 05:58:23;;;;;;;6.00;2.95;;;;;;;6.25;60.79;93466.59;4131595;28;20050;-84
2021/01/24 06:00:25;;;;;;;5.38;2.83;;;;;;;6.29;59.89;93464.50;4129591;28;20046;-83
2021/01/24 06:02:27;;;;;;;4.80;1.70;;;;;;;6.43;57.16;93461.25;4132045;28;20050;-83
2021/01/24 06:04:28;;;;;;;4.95;2.60;;;;;;;6.54;57.96;93467.91;4131353;28;20046;-83
2021/01/24 06:06:29;;;;;;;5.00;1.48;;;;;;;6.65;56.55;93464.97;4131553;28;20524;-84
2021/01/24 06:08:31;;;;;;;5.93;1.70;;;;;;;6.70;56.77;93472.25;4131217;28;20054;-81
2021/01/24 06:10:33;;;;;;;3.22;1.30;;;;;;;6.76;55.05;93469.81;4130587;28;20054;-83
2021/01/24 06:12:36;;;;;;;4.93;1.30;;;;;;;6.85;55.19;93470.59;4131795;28;20069;-82
2021/01/24 06:14:39;;;;;;;2.50;1.10;;;;;;;6.88;54.71;93483.31;4132483;28;20423;-82
2021/01/24 06:16:45;;;;;;;4.27;1.60;;;;;;;7.00;54.26;93495.97;4132250;28;20054;-82
2021/01/24 06:19:02;;;;;;;2.35;1.25;;;;;;;7.13;54.71;93510.06;4125702;28;20284;-82
2021/01/24 06:21:05;;;;;;;2.92;1.27;;;;;;;7.10;54.30;93501.81;4114507;28;20047;-82
2021/01/24 06:23:14;;;;;;;4.03;1.90;;;;;;;7.14;54.92;93516.09;4130868;28;20522;-84
2021/01/24 06:25:25;;;;;;;2.92;1.85;;;;;;;6.97;54.73;93526.56;4122947;28;20054;-81
2021/01/24 06:27:30;;;;;;;6.50;2.92;;;;;;;6.99;56.02;93529.00;4120288;28;20056;-85
2021/01/24 06:29:31;;;;;;;3.92;1.92;;;;;;;7.00;56.43;93522.81;4123738;28;20051;-83
2021/01/24 06:31:33;;;;;;;4.10;2.00;;;;;;;6.97;56.88;93518.75;4137904;28;20478;-83
2021/01/24 06:33:34;;;;;;;5.15;2.33;;;;;;;6.85;57.62;93527.88;4137339;28;20535;-83
2021/01/24 06:35:43;;;;;;;4.95;2.80;;;;;;;6.89;57.71;93529.16;4132207;28;20050;-84
2021/01/24 06:37:49;;;;;;;5.43;2.60;;;;;;;6.94;57.82;93539.88;4126853;28;20055;-83
2021/01/24 06:39:52;;;;;;;7.25;2.75;;;;;;;6.83;58.00;93549.84;4130650;28;20050;-82
2021/01/24 06:41:53;;;;;;;5.10;2.65;;;;;;;6.73;58.06;93548.25;4138546;28;20484;-84
2021/01/24 06:43:54;;;;;;;5.22;2.72;;;;;;;6.84;58.50;93554.06;4133336;28;20412;-82
2021/01/24 06:45:56;;;;;;;5.25;2.70;;;;;;;6.86;58.29;93547.75;4132567;28;20047;-83
2021/01/24 06:47:58;;;;;;;5.78;2.55;;;;;;;6.98;57.51;93535.97;4114483;28;20059;-81
2021/01/24 06:50:00;;;;;;;2.83;1.30;;;;;;;7.12;55.48;93533.66;4131991;28;20496;-71
2021/01/24 06:52:15;;;;;;;3.60;1.85;;;;;;;7.17;56.04;93550.44;4122789;28;20108;-72
2021/01/24 06:54:29;;;;;;;3.92;2.00;;;;;;;7.23;56.93;93562.00;4112876;28;20134;-71
2021/01/24 06:56:41;;;;;;;4.80;2.60;;;;;;;7.23;57.23;93555.94;4120075;28;20398;-71
2021/01/24 06:58:50;;;;;;;3.47;2.50;;;;;;;7.30;57.02;93562.94;4120690;28;20480;-71
2021/01/24 07:00:52;;;;;;;5.97;3.13;;;;;;;7.26;57.55;93553.03;4118742;28;20047;-70
2021/01/24 07:02:53;;;;;;;3.85;1.55;;;;;;;7.15;54.67;93564.59;4113714;28;20113;-71
2021/01/24 07:05:14;;;;;;;3.78;2.50;;;;;;;7.40;55.74;93573.19;4123720;28;20074;-72
2021/01/24 07:07:15;;;;;;;5.65;2.80;;;;;;;7.49;57.17;93584.41;4121250;28;20042;-70
2021/01/24 07:11:50;;;;;;;5.13;2.85;;;;;;;7.49;56.62;93571.38;4129346;28;20050;-71
2021/01/24 07:13:51;;;;;;;3.63;2.03;;;;;;;7.54;55.45;93580.28;4126320;28;20060;-71
2021/01/24 07:15:54;;;;;;;3.65;2.53;;;;;;;7.66;55.46;93582.53;4127311;28;20056;-70
2021/01/24 07:17:59;;;;;;;3.57;2.27;;;;;;;7.82;56.51;93577.25;4129611;28;20495;-70
2021/01/24 07:20:01;;;;;;;5.68;2.63;;;;;;;8.01;55.80;93589.06;4114073;28;20050;-71
2021/01/24 07:22:04;;;;;;;5.32;2.83;;;;;;;8.09;55.49;93581.22;4126905;28;20198;-69
2021/01/24 07:24:05;;;;;;;5.60;2.60;;;;;;;8.15;55.46;93577.94;4128246;28;20054;-69
2021/01/24 07:26:10;;;;;;;4.35;2.85;;;;;;;8.21;55.49;93572.00;4128791;28;20050;-71
2021/01/24 07:28:12;;;;;;;4.68;2.38;;;;;;;8.28;53.90;93571.31;4132615;28;20258;-70
2021/01/24 07:30:14;;;;;;;3.50;1.90;;;;;;;8.17;53.45;93567.31;4127838;28;20069;-72
2021/01/24 07:32:22;;;;;;;3.03;2.33;;;;;;;8.22;54.37;93578.03;4129874;28;20463;-71
2021/01/24 07:34:24;;;;;;;4.22;2.38;;;;;;;8.33;54.37;93577.66;4132600;28;20046;-71
2021/01/24 07:36:29;;;;;;;5.72;1.92;;;;;;;8.29;52.57;93562.50;4135172;28;20061;-84
2021/01/24 07:38:30;;;;;;;3.88;1.42;;;;;;;8.24;51.07;93572.63;4135268;28;20046;-84
2021/01/24 07:40:32;;;;;;;4.45;1.10;;;;;;;8.40;50.38;93576.00;4133090;28;20055;-83
2021/01/24 07:42:33;;;;;;;2.20;1.30;;;;;;;8.51;49.93;93585.22;4121081;28;20484;-82
2021/01/24 07:44:34;;;;;;;3.92;1.50;;;;;;;8.58;49.79;93578.34;4133017;28;20129;-83
2021/01/24 07:46:35;;;;;;;4.60;1.50;;;;;;;8.74;50.07;93581.81;4133720;28;20046;-82
2021/01/24 07:48:37;;;;;;;15.77;3.00;;;;;;;8.71;50.25;93575.16;4133879;28;20095;-83
2021/01/24 07:50:38;;;;;;;4.10;1.73;;;;;;;8.76;49.92;93580.63;4132902;28;20101;-83
2021/01/24 07:52:40;;;;;;;2.22;0.90;;;;;;;8.87;48.17;93576.81;4132764;28;20062;-83
2021/01/24 07:54:42;;;;;;;3.20;1.40;;;;;;;8.90;46.80;93573.81;4138760;28;20045;-80
2021/01/24 07:56:44;;;;;;;6.93;1.75;;;;;;;8.90;46.89;93584.28;4125255;28;20086;-82
2021/01/24 07:58:46;;;;;;;4.45;1.60;;;;;;;8.96;46.31;93583.56;4134167;28;20057;-82
2021/01/24 08:00:47;;;;;;;2.92;1.30;;;;;;;9.07;47.13;93594.59;4128157;28;20046;-83
2021/01/24 08:02:48;;;;;;;3.78;1.60;;;;;;;8.76;47.02;93601.53;4105968;28;20058;-82
2021/01/24 08:05:00;;;;;;;8.63;2.17;;;;;;;8.94;46.72;93623.91;4132632;28;20043;-82
2021/01/24 08:07:05;;;;;;;2.05;0.93;;;;;;;8.82;46.29;93610.47;4126122;28;20445;-85
2021/01/24 08:09:08;;;;;;;10.10;1.80;;;;;;;8.87;46.65;93609.94;4125180;28;20097;-83
2021/01/24 08:11:15;;;;;;;7.73;3.57;;;;;;;8.91;46.48;93614.63;4134608;28;20054;-84
2021/01/24 08:13:16;;;;;;;4.72;2.00;;;;;;;9.27;46.12;93629.69;4135973;28;20050;-82
2021/01/24 08:15:18;;;;;;;2.20;1.08;;;;;;;9.36;45.85;93601.69;4133080;28;20112;-83
2021/01/24 08:17:20;;;;;;;6.72;1.95;;;;;;;9.38;45.49;93620.63;4116536;28;20484;-85
2021/01/24 08:19:23;;;;;;;3.58;1.45;;;;;;;9.60;45.24;93624.94;4133632;28;20046;-84
2021/01/24 08:21:25;;;;;;;7.15;2.85;;;;;;;9.63;47.11;93613.31;4134203;28;20422;-83
2021/01/24 08:23:28;;;;;;;6.63;2.60;;;;;;;9.10;50.00;93625.56;4132598;28;20511;-83
2021/01/24 08:25:29;;;;;;;7.65;3.08;;;;;;;9.25;50.00;93647.34;4132514;28;20058;-83
2021/01/24 08:27:30;;;;;;;18.67;4.05;;;;;;;9.37;51.36;93629.44;4133268;28;20057;-82
2021/01/24 08:29:37;;;;;;;15.73;4.20;;;;;;;9.29;51.61;93632.94;4136491;28;20046;-81
2021/01/24 08:31:39;;;;;;;8.32;3.92;;;;;;;9.23;52.41;93626.63;4137112;28;20050;-83
2021/01/24 08:33:41;;;;;;;12.07;3.78;;;;;;;8.64;53.93;93623.00;4134277;28;20419;-85
2021/01/24 08:35:43;;;;;;;9.40;3.47;;;;;;;8.61;54.22;93619.75;4103782;28;20060;-82
2021/01/24 08:37:47;;;;;;;8.38;3.72;;;;;;;8.67;53.53;93628.69;4134120;28;20058;-82
2021/01/24 08:39:51;;;;;;;9.85;3.25;;;;;;;8.67;53.67;93631.31;4135564;28;20042;-83
2021/01/24 08:41:53;;;;;;;;;;;;;;;8.83;52.27;93632.97;4136403;28;20526;-84
2021/01/24 08:44:13;;;;;;;7.82;2.95;;;;;;;8.96;51.58;93627.97;4134122;28;19921;-83
2021/01/24 08:46:26;;;;;;;8.13;3.40;;;;;;;9.13;51.28;93625.25;4120367;28;20133;-84
2021/01/24 08:48:28;;;;;;;6.65;3.10;;;;;;;9.14;51.21;93619.84;4116037;28;20050;-83
2021/01/24 08:50:34;;;;;;;7.18;3.15;;;;;;;9.29;50.72;93638.19;4132007;28;20436;-70
2021/01/24 08:52:35;;;;;;;11.25;3.65;;;;;;;9.39;50.63;93635.28;4140878;28;20097;-72
2021/01/24 08:54:40;;;;;;;18.38;6.05;;;;;;;9.41;51.74;93631.50;4125995;28;20087;-71
2021/01/24 08:56:41;;;;;;;12.38;3.47;;;;;;;9.39;51.02;93627.44;4112813;28;20109;-71
2021/01/24 08:58:42;;;;;;;10.93;3.58;;;;;;;9.49;50.70;93640.28;4122972;28;20126;-70
2021/01/24 09:00:43;;;;;;;6.95;2.80;;;;;;;9.58;50.26;93647.03;4128027;28;20133;-70
2021/01/24 09:02:45;;;;;;;6.10;3.08;;;;;;;9.48;50.93;93657.75;4112178;28;20058;-70
2021/01/24 09:04:55;;;;;;;5.75;3.05;;;;;;;9.15;50.24;93644.16;4126317;28;20059;-71
2021/01/24 09:07:12;;;;;;;5.60;3.22;;;;;;;9.25;50.21;93639.50;4120021;28;20062;-72
2021/01/24 09:09:25;;;;;;;12.75;4.30;;;;;;;9.61;49.96;93649.28;4130177;28;20050;-70
2021/01/24 09:11:27;;;;;;;10.50;2.75;;;;;;;9.60;48.50;93642.47;4130385;28;20497;-70
2021/01/24 09:13:28;;;;;;;11.50;2.58;;;;;;;9.68;47.28;93658.06;4130110;28;20058;-84
2021/01/24 09:15:31;;;;;;;6.40;2.15;;;;;;;9.97;47.47;93661.69;4133667;28;20637;-84
2021/01/24 09:17:32;;;;;;;9.27;2.13;;;;;;;10.05;47.84;93666.81;4133818;28;20085;-81
2021/01/24 09:19:35;;;;;;;7.68;2.50;;;;;;;10.21;47.36;93671.84;4133115;28;20084;-84
2021/01/24 09:21:38;;;;;;;2.90;1.30;;;;;;;10.25;45.48;93654.78;4134051;28;20138;-85
2021/01/24 09:23:40;;;;;;;3.45;1.55;;;;;;;9.61;45.40;93649.28;4115766;28;20065;-82
2021/01/24 09:25:41;;;;;;;4.65;1.58;;;;;;;9.65;45.83;93645.34;4117696;28;20043;-84
2021/01/24 09:27:42;;;;;;;6.68;1.58;;;;;;;9.79;45.65;93651.59;4124779;28;20495;-82
2021/01/24 09:29:43;;;;;;;3.90;1.40;;;;;;;10.17;45.47;93651.47;4133795;28;20388;-83
2021/01/24 09:31:45;;;;;;;7.85;1.95;;;;;;;10.52;45.27;93647.31;4131101;28;20152;-85
2021/01/24 09:33:46;;;;;;;8.90;2.60;;;;;;;10.61;44.53;93640.16;4132789;28;20057;-83
2021/01/24 09:35:47;;;;;;;5.55;1.88;;;;;;;10.75;45.08;93633.22;4132787;28;20898;-83
2021/01/24 09:37:48;;;;;;;10.27;2.10;;;;;;;10.72;44.51;93628.38;4131091;28;20507;-83
2021/01/24 09:39:50;;;;;;;6.47;1.70;;;;;;;10.65;45.25;93626.50;4132500;28;20061;-84
2021/01/24 09:41:51;;;;;;;6.75;2.20;;;;;;;10.43;45.49;93617.81;4133128;28;20057;-83
2021/01/24 09:43:53;;;;;;;6.65;1.88;;;;;;;10.56;45.75;93627.59;4131663;28;20058;-82
2021/01/24 09:45:54;;;;;;;5.20;1.63;;;;;;;10.70;45.53;93625.13;4132034;28;20078;-83
2021/01/24 09:47:56;;;;;;;5.63;1.30;;;;;;;11.07;44.74;93632.72;4133597;28;20470;-86
2021/01/24 09:49:58;;;;;;;2.40;1.20;;;;;;;11.39;43.05;93624.53;4139174;28;20189;-83